Allensworth, California
Current Conditions -  °F | °C
As of 2:15 AM on Saturday 22 Nov 2014 (Local Time) from KPTV Reporting Station
Broken Clouds Broken Clouds  
Wind Chill:   Ceiling: 1800
Heat Index:   Visibility: 4mi
Dew Point:   Wind: 3mph
Humidity: 87%   Direction: 110°ESE
Pressure: 30.21"   Gusts: NA
Location:  35.856°N, 119.335°W
Report Text: KPTV 221015Z AUTO 11003KT 4SM BKN018 08/06 A3021 RMK AO1
Loading
Personal Weather Stations






























Interactive Weather Map New forecast layout! Learn more

10-Day Weather Forecast

Advertisements
Track Severe Weather on mobile